Time;durP1;ratioP1;P1;durP2;ratioP2;P2;SDS_P1;SDS_P2;PMS_P1;PMS_P2;Temp;Humidity;BMP_temperature;BMP_pressure;BME280_temperature;BME280_humidity;BME280_pressure;Samples;Min_cycle;Max_cycle;Signal;HPM_P1;HPM_P2
2023/03/15 00:02:02;;;;;;;5.18;1.20;;;;;;;1.18;100.00;100380.59;5019113;23;20232;-41
2023/03/15 00:04:31;;;;;;;8.70;1.17;;;;;;;1.16;100.00;100387.66;5030818;28;20696;-44
2023/03/15 00:06:57;;;;;;;6.60;1.33;;;;;;;1.13;100.00;100392.06;5024210;28;20194;-44
2023/03/15 00:09:23;;;;;;;11.43;2.90;;;;;;;1.16;100.00;100402.56;5009904;28;20173;-43
2023/03/15 00:11:50;;;;;;;3.67;1.10;;;;;;;1.33;100.00;100402.47;5012751;28;20174;-45
2023/03/15 00:14:16;;;;;;;6.47;1.40;;;;;;;1.33;100.00;100410.38;5030562;28;20262;-43
2023/03/15 00:16:41;;;;;;;5.63;1.20;;;;;;;1.15;100.00;100406.97;5030776;28;20207;-43
2023/03/15 00:19:08;;;;;;;7.65;1.60;;;;;;;1.28;100.00;100417.47;5027856;28;20701;-44
2023/03/15 00:21:34;;;;;;;7.05;1.50;;;;;;;0.97;100.00;100422.94;5025676;28;20183;-43
2023/03/15 00:24:00;;;;;;;8.68;2.05;;;;;;;0.95;100.00;100433.47;5030372;28;20207;-43
2023/03/15 00:26:25;;;;;;;7.72;1.73;;;;;;;0.84;100.00;100439.72;5029152;28;20595;-44
2023/03/15 00:28:51;;;;;;;14.23;1.90;;;;;;;0.67;100.00;100447.69;5030402;28;20172;-43
2023/03/15 00:31:20;;;;;;;11.55;1.63;;;;;;;0.66;100.00;100451.22;5030507;28;20649;-41
2023/03/15 00:33:46;;;;;;;12.82;1.90;;;;;;;0.58;100.00;100469.69;5028599;28;20223;-45
2023/03/15 00:36:14;;;;;;;5.63;1.38;;;;;;;0.47;100.00;100479.38;5019853;28;20257;-46
2023/03/15 00:38:42;;;;;;;6.97;1.30;;;;;;;0.42;100.00;100497.84;5030568;28;20164;-44
2023/03/15 00:41:14;;;;;;;5.10;1.13;;;;;;;0.38;100.00;100506.63;5023857;28;20652;-44
2023/03/15 00:43:40;;;;;;;5.68;1.15;;;;;;;0.30;100.00;100501.38;5010812;28;20621;-42
2023/03/15 00:46:08;;;;;;;3.17;1.17;;;;;;;0.26;100.00;100496.97;5027795;28;20168;-43
2023/03/15 00:48:34;;;;;;;5.63;1.15;;;;;;;0.32;100.00;100490.84;5021517;28;20207;-43
2023/03/15 00:51:06;;;;;;;9.40;1.60;;;;;;;0.28;100.00;100487.31;5016025;28;20584;-45
2023/03/15 00:53:32;;;;;;;5.63;1.27;;;;;;;0.22;100.00;100491.72;5021959;28;20213;-46
2023/03/15 00:55:59;;;;;;;4.40;1.15;;;;;;;0.10;100.00;100492.63;5009673;28;20280;-42
2023/03/15 00:58:24;;;;;;;8.50;1.30;;;;;;;0.18;100.00;100482.97;5030959;28;20180;-43
2023/03/15 01:00:50;;;;;;;4.85;1.02;;;;;;;0.24;100.00;100493.50;5025653;28;20619;-48
2023/03/15 01:03:16;;;;;;;6.28;1.67;;;;;;;0.34;100.00;100487.31;5015237;28;20221;-44
2023/03/15 01:05:41;;;;;;;4.40;1.23;;;;;;;0.36;100.00;100498.72;5017472;28;20271;-43
2023/03/15 01:08:07;;;;;;;6.15;1.30;;;;;;;0.23;100.00;100497.00;5032234;28;20183;-43
2023/03/15 01:10:35;;;;;;;9.18;1.55;;;;;;;0.30;100.00;100504.00;5027300;28;20177;-45
2023/03/15 01:13:01;;;;;;;11.98;2.10;;;;;;;0.24;100.00;100503.13;5014100;28;20201;-45
2023/03/15 01:15:26;;;;;;;5.30;0.88;;;;;;;0.10;100.00;100503.16;5032545;28;20338;-43
2023/03/15 01:17:52;;;;;;;9.32;1.38;;;;;;;0.19;100.00;100513.69;5030680;28;20187;-43
2023/03/15 01:20:17;;;;;;;9.77;1.38;;;;;;;0.08;100.00;100518.97;5030455;28;20535;-44
2023/03/15 01:22:43;;;;;;;5.60;1.33;;;;;;;0.09;100.00;100520.72;5020044;28;20614;-46
2023/03/15 01:25:09;;;;;;;7.45;1.95;;;;;;;0.22;100.00;100512.78;5023732;28;20168;-44
2023/03/15 01:27:34;;;;;;;8.73;1.55;;;;;;;0.16;100.00;100530.38;5031926;28;20546;-44
2023/03/15 01:30:00;;;;;;;7.28;1.40;;;;;;;0.16;100.00;100535.66;5031189;28;20636;-44
2023/03/15 01:32:26;;;;;;;5.82;1.55;;;;;;;0.19;100.00;100542.66;5022178;28;20179;-48
2023/03/15 01:34:51;;;;;;;5.25;1.23;;;;;;;0.26;100.00;100551.44;5029059;28;20682;-49
2023/03/15 01:37:17;;;;;;;8.77;1.55;;;;;;;0.16;100.00;100537.41;5033511;28;20514;-43
2023/03/15 01:39:43;;;;;;;10.73;1.55;;;;;;;0.19;100.00;100542.66;5017803;28;20183;-49
2023/03/15 01:42:10;;;;;;;12.07;1.48;;;;;;;0.14;100.00;100544.44;5017621;28;20292;-45
2023/03/15 01:44:50;;;;;;;10.02;1.83;;;;;;;0.17;100.00;100531.25;5029270;28;20205;-43
2023/03/15 01:47:16;;;;;;;8.02;1.77;;;;;;;0.25;100.00;100549.69;5031679;28;20163;-46
2023/03/15 01:49:44;;;;;;;9.05;1.60;;;;;;;0.16;100.00;100542.69;5028715;28;20191;-47
2023/03/15 01:52:20;;;;;;;13.02;1.42;;;;;;;0.22;100.00;100547.94;5031471;28;20225;-50
2023/03/15 01:55:03;;;;;;;9.70;1.70;;;;;;;0.16;100.00;100546.19;5021214;28;20561;-44
2023/03/15 01:57:38;;;;;;;11.55;1.77;;;;;;;0.20;100.00;100550.56;5021414;28;20172;-47
2023/03/15 02:00:15;;;;;;;11.60;1.63;;;;;;;0.26;100.00;100556.72;5020380;28;20448;-44
2023/03/15 02:03:20;;;;;;;6.97;1.45;;;;;;;0.18;100.00;100565.50;5021839;28;20299;-49
2023/03/15 02:05:55;;;;;;;7.53;1.30;;;;;;;0.18;100.00;100577.81;5031296;28;20206;-43
2023/03/15 02:08:41;;;;;;;6.20;1.23;;;;;;;0.26;100.00;100599.72;5030061;28;20168;-43
2023/03/15 02:11:07;;;;;;;7.68;1.23;;;;;;;0.26;100.00;100606.75;5010319;28;20183;-47
2023/03/15 02:13:35;;;;;;;7.65;1.55;;;;;;;0.29;100.00;100607.66;5030239;28;20203;-48
2023/03/15 02:16:05;;;;;;;4.90;1.55;;;;;;;0.27;100.00;100612.03;5029329;28;20711;-46
2023/03/15 02:18:37;;;;;;;10.25;1.27;;;;;;;0.36;100.00;100606.78;5020646;28;20254;-42
2023/03/15 02:21:29;;;;;;;3.22;1.30;;;;;;;0.27;100.00;100622.59;5012927;28;20169;-42
2023/03/15 02:24:26;;;;;;;4.93;1.15;;;;;;;0.30;100.00;100614.66;5025785;28;20200;-42
2023/03/15 02:26:56;;;;;;;5.82;1.25;;;;;;;0.24;100.00;100624.31;5037127;28;20201;-48
2023/03/15 02:29:27;;;;;;;3.85;1.00;;;;;;;0.22;100.00;100621.72;5008119;28;20204;-43
2023/03/15 02:31:54;;;;;;;3.20;1.50;;;;;;;0.27;100.00;100633.13;5028846;28;20184;-45
2023/03/15 02:34:24;;;;;;;7.45;1.40;;;;;;;0.33;100.00;100633.13;5030791;28;20196;-43
2023/03/15 02:36:50;;;;;;;7.20;1.90;;;;;;;0.31;100.00;100649.81;5027567;28;20205;-44
2023/03/15 02:39:18;;;;;;;7.80;1.50;;;;;;;0.26;100.00;100646.28;5013009;28;20184;-43
2023/03/15 02:41:48;;;;;;;9.43;1.48;;;;;;;0.22;100.00;100665.59;5023186;28;20751;-44
2023/03/15 02:44:37;;;;;;;7.18;1.40;;;;;;;0.17;100.00;100663.84;5016515;28;20643;-42
2023/03/15 02:47:08;;;;;;;6.78;1.55;;;;;;;0.16;100.00;100674.38;5026494;28;20192;-45
2023/03/15 02:49:40;;;;;;;2.97;0.90;;;;;;;0.06;100.00;100681.38;5026923;28;20203;-44
2023/03/15 02:52:07;;;;;;;4.88;1.15;;;;;;;0.01;100.00;100680.50;5030591;28;20518;-47
2023/03/15 02:54:35;;;;;;;3.95;0.93;;;;;;;-0.02;100.00;100669.97;5023860;28;20207;-44
2023/03/15 02:57:02;;;;;;;5.72;0.70;;;;;;;-0.15;100.00;100663.78;5030497;28;20196;-45
2023/03/15 02:59:28;;;;;;;3.78;1.02;;;;;;;-0.23;100.00;100652.34;5018025;28;20180;-42
2023/03/15 03:01:54;;;;;;;5.10;1.02;;;;;;;-0.22;100.00;100662.00;5016667;28;20200;-42
2023/03/15 03:04:19;;;;;;;2.33;0.82;;;;;;;-0.13;100.00;100656.78;5018399;28;20254;-43
2023/03/15 03:06:46;;;;;;;1.85;0.90;;;;;;;-0.15;100.00;100648.00;5020438;28;20670;-42
2023/03/15 03:09:16;;;;;;;5.22;1.08;;;;;;;-0.16;100.00;100643.59;5020883;28;20659;-43
2023/03/15 03:11:42;;;;;;;5.05;0.93;;;;;;;-0.14;100.00;100643.59;5031372;28;20171;-45
2023/03/15 03:14:07;;;;;;;3.47;1.08;;;;;;;-0.10;100.00;100651.50;5020483;28;20200;-46
2023/03/15 03:16:33;;;;;;;4.95;0.93;;;;;;;-0.07;100.00;100659.41;5012638;28;20578;-43
2023/03/15 03:18:58;;;;;;;4.93;1.05;;;;;;;-0.07;100.00;100672.56;5026819;28;20669;-43
2023/03/15 03:21:26;;;;;;;5.38;1.00;;;;;;;-0.22;100.00;100664.63;5020123;28;20656;-44
2023/03/15 03:23:53;;;;;;;3.15;1.05;;;;;;;-0.15;100.00;100661.16;5026734;28;20342;-45
2023/03/15 03:26:21;;;;;;;5.50;0.95;;;;;;;-0.23;100.00;100669.03;5022016;28;20172;-47
2023/03/15 03:28:48;;;;;;;2.53;0.95;;;;;;;-0.18;100.00;100665.53;5027373;28;20184;-46
2023/03/15 03:31:20;;;;;;;2.30;1.00;;;;;;;-0.14;100.00;100675.19;5028216;28;20184;-43
2023/03/15 03:33:46;;;;;;;7.15;1.10;;;;;;;-0.14;100.00;100676.06;5020891;28;20629;-47
2023/03/15 03:36:12;;;;;;;5.13;1.05;;;;;;;-0.14;100.00;100681.34;5026328;28;20212;-43
2023/03/15 03:38:43;;;;;;;5.55;1.13;;;;;;;-0.10;100.00;100682.22;5011303;28;20203;-49
2023/03/15 03:41:10;;;;;;;3.22;1.05;;;;;;;-0.11;100.00;100694.53;5024378;28;20176;-45
2023/03/15 03:43:37;;;;;;;5.05;1.05;;;;;;;-0.11;100.00;100694.53;5026864;28;20207;-46
2023/03/15 03:46:03;;;;;;;2.33;0.90;;;;;;;-0.25;100.00;100688.31;5029724;28;20264;-47
2023/03/15 03:48:30;;;;;;;5.65;1.10;;;;;;;-0.40;100.00;100712.81;5029527;28;20456;-43
2023/03/15 03:50:57;;;;;;;3.03;1.15;;;;;;;-0.38;100.00;100716.34;5021598;28;20254;-44
2023/03/15 03:53:23;;;;;;;5.13;1.42;;;;;;;-0.54;100.00;100718.03;5024517;28;20283;-42
2023/03/15 03:55:48;;;;;;;4.57;1.15;;;;;;;-0.44;100.00;100719.84;5011464;28;20350;-42
2023/03/15 03:58:17;;;;;;;6.00;1.25;;;;;;;-0.47;100.00;100732.97;5016807;28;20173;-43
2023/03/15 04:00:57;;;;;;;6.18;1.30;;;;;;;-0.49;100.00;100737.34;5027800;28;20518;-48
2023/03/15 04:03:28;;;;;;;8.40;1.70;;;;;;;-0.50;100.00;100746.13;5026682;28;20587;-45
2023/03/15 04:06:04;;;;;;;8.77;1.67;;;;;;;-0.50;100.00;100738.22;5023852;28;20575;-43
2023/03/15 04:08:31;;;;;;;9.25;1.63;;;;;;;-0.48;100.00;100749.66;5019953;28;20176;-46
2023/03/15 04:10:57;;;;;;;10.18;1.55;;;;;;;-0.48;100.00;100756.63;5025784;28;20230;-43
2023/03/15 04:13:25;;;;;;;7.15;1.38;;;;;;;-0.53;100.00;100753.09;4996037;28;20312;-50
2023/03/15 04:15:56;;;;;;;8.82;1.40;;;;;;;-0.51;100.00;100770.66;5017823;28;20235;-46
2023/03/15 04:18:22;;;;;;;8.48;1.63;;;;;;;-0.56;100.00;100777.66;5015310;28;20160;-44
2023/03/15 04:20:48;;;;;;;7.18;1.58;;;;;;;-0.51;100.00;100781.19;5029326;28;20191;-45
2023/03/15 04:23:17;;;;;;;9.68;2.15;;;;;;;-0.55;100.00;100781.16;5015815;28;20204;-47
2023/03/15 04:26:25;;;;;;;5.38;1.50;;;;;;;-0.49;100.00;100779.44;5025790;28;20179;-43
2023/03/15 04:29:00;;;;;;;4.53;1.23;;;;;;;-0.58;100.00;100783.78;5019618;28;20289;-45
2023/03/15 04:31:50;;;;;;;12.98;1.83;;;;;;;-0.59;100.00;100785.53;5029189;28;20597;-42
2023/03/15 04:34:41;;;;;;;4.70;1.10;;;;;;;-0.54;100.00;100793.47;5033130;28;20211;-44
2023/03/15 04:37:16;;;;;;;4.03;1.45;;;;;;;-0.60;100.00;100786.41;5031517;28;20292;-43
2023/03/15 04:40:00;;;;;;;3.72;1.40;;;;;;;-0.55;100.00;100786.44;5016283;28;20589;-46
2023/03/15 04:42:44;;;;;;;8.20;1.40;;;;;;;-0.69;100.00;100794.25;5023848;28;20179;-46
2023/03/15 04:45:30;;;;;;;2.38;1.00;;;;;;;-0.73;100.00;100795.06;5018159;28;20677;-43
2023/03/15 04:48:14;;;;;;;7.93;2.20;;;;;;;-0.66;100.00;100797.78;5034327;28;20194;-43
2023/03/15 04:51:05;;;;;;;5.60;1.70;;;;;;;-0.65;100.00;100782.88;5022561;28;20220;-45
2023/03/15 04:54:00;;;;;;;9.75;1.85;;;;;;;-0.71;100.00;100802.09;5024787;28;20200;-47
2023/03/15 04:56:58;;;;;;;6.50;2.20;;;;;;;-0.76;100.00;100802.97;5012353;28;20681;-43
2023/03/15 04:59:42;;;;;;;4.90;1.70;;;;;;;-0.74;100.00;100802.09;5014852;28;20238;-43
2023/03/15 05:02:22;;;;;;;10.93;2.40;;;;;;;-0.83;100.00;100807.28;5016491;28;20348;-46
2023/03/15 05:05:07;;;;;;;7.60;2.17;;;;;;;-0.84;100.00;100821.28;5033239;28;20319;-48
2023/03/15 05:07:53;;;;;;;7.78;2.10;;;;;;;-0.79;100.00;100810.81;5024260;28;20338;-43
2023/03/15 05:10:32;;;;;;;7.88;2.42;;;;;;;-0.89;100.00;100815.13;5014918;28;20176;-46
2023/03/15 05:13:20;;;;;;;8.10;2.38;;;;;;;-0.92;100.00;100823.88;5007576;28;20299;-42
2023/03/15 05:16:12;;;;;;;8.30;2.33;;;;;;;-0.91;100.00;100830.00;5025585;28;20744;-45
2023/03/15 05:18:47;;;;;;;7.03;2.17;;;;;;;-0.95;100.00;100830.84;5014091;28;20172;-43
2023/03/15 05:21:31;;;;;;;6.53;2.40;;;;;;;-0.85;100.00;100832.69;5030493;28;20233;-43
2023/03/15 05:24:25;;;;;;;6.75;2.83;;;;;;;-0.89;100.00;100828.28;5012911;28;20554;-43
2023/03/15 05:27:12;;;;;;;4.32;2.40;;;;;;;-0.93;100.00;100844.91;5017370;28;20844;-43
2023/03/15 05:30:04;;;;;;;7.80;2.88;;;;;;;-0.97;100.00;100851.00;5018725;28;20537;-49
2023/03/15 05:32:48;;;;;;;6.32;2.42;;;;;;;-0.91;100.00;100864.19;5033448;28;20526;-50
2023/03/15 05:35:47;;;;;;;8.07;3.00;;;;;;;-0.88;100.00;100870.34;4995879;28;20587;-43
2023/03/15 05:38:28;;;;;;;5.97;2.38;;;;;;;-0.88;100.00;100856.31;5020198;28;20680;-43
2023/03/15 05:41:05;;;;;;;5.65;2.58;;;;;;;-0.89;100.00;100873.00;5029859;28;20184;-44
2023/03/15 05:43:54;;;;;;;7.10;2.70;;;;;;;-0.80;100.00;100877.47;5021107;28;20208;-42
2023/03/15 05:46:30;;;;;;;7.60;3.33;;;;;;;-0.76;100.00;100858.22;5032138;28;20233;-43
2023/03/15 05:49:19;;;;;;;8.93;2.80;;;;;;;-0.74;100.00;100869.63;5015111;28;20671;-44
2023/03/15 05:52:04;;;;;;;7.68;2.78;;;;;;;-0.67;100.00;100871.44;5015607;28;20631;-45
2023/03/15 05:54:36;;;;;;;4.57;2.63;;;;;;;-0.54;100.00;100878.53;5013165;28;20679;-43
2023/03/15 05:57:25;;;;;;;9.77;2.92;;;;;;;-0.44;100.00;100885.66;5013643;28;20228;-42
2023/03/15 06:00:20;;;;;;;6.25;3.40;;;;;;;-0.30;100.00;100890.13;4995842;28;20200;-46
2023/03/15 06:02:50;;;;;;;11.00;2.92;;;;;;;-0.35;100.00;100895.38;5027784;28;20197;-47
2023/03/15 06:05:37;;;;;;;7.93;2.78;;;;;;;-0.32;100.00;100903.28;4871833;23;20588;-46
2023/03/15 06:08:07;;;;;;;7.65;2.20;;;;;;;-0.25;100.00;100901.56;5013145;28;20223;-45
2023/03/15 06:10:36;;;;;;;5.82;2.28;;;;;;;-0.37;100.00;100906.72;5038349;28;20186;-45
2023/03/15 06:13:06;;;;;;;12.50;2.45;;;;;;;-0.38;100.00;100912.88;5019495;28;20207;-46
2023/03/15 06:15:31;;;;;;;8.05;2.20;;;;;;;-0.39;100.00;100921.63;5037837;28;20196;-45
2023/03/15 06:17:58;;;;;;;11.85;2.55;;;;;;;-0.34;100.00;100917.31;5023608;28;20172;-46
2023/03/15 06:20:24;;;;;;;9.55;2.40;;;;;;;-0.38;100.00;100926.03;5026341;28;20720;-45
2023/03/15 06:22:51;;;;;;;6.22;2.10;;;;;;;-0.42;100.00;100911.97;5025233;28;20253;-45
2023/03/15 06:25:27;;;;;;;10.90;2.17;;;;;;;-0.31;100.00;100914.69;5022069;28;20536;-45
2023/03/15 06:27:53;;;;;;;10.13;1.85;;;;;;;-0.40;100.00;100920.75;5037807;28;20317;-47
2023/03/15 06:30:19;;;;;;;12.05;2.30;;;;;;;-0.34;100.00;100909.41;5023583;28;20553;-46
2023/03/15 06:32:45;;;;;;;10.18;3.08;;;;;;;-0.32;100.00;100912.94;5022224;28;20186;-46
2023/03/15 06:35:12;;;;;;;8.52;2.10;;;;;;;-0.34;100.00;100917.31;5022072;28;20333;-46
2023/03/15 06:37:38;;;;;;;7.63;1.90;;;;;;;-0.37;100.00;100922.53;5025007;28;20285;-45
2023/03/15 06:40:08;;;;;;;6.18;1.77;;;;;;;-0.37;100.00;100936.59;5030110;28;20184;-47
2023/03/15 06:42:35;;;;;;;11.02;1.98;;;;;;;-0.32;100.00;100931.38;5025049;28;20190;-45
2023/03/15 06:45:02;;;;;;;8.57;1.75;;;;;;;-0.17;100.00;100933.22;5022967;28;20257;-46
2023/03/15 06:47:28;;;;;;;10.38;1.75;;;;;;;-0.03;100.00;100940.34;5028312;28;20605;-47
2023/03/15 06:49:54;;;;;;;6.47;1.73;;;;;;;0.14;100.00;100956.25;5022876;28;20184;-47
2023/03/15 06:52:21;;;;;;;12.82;3.42;;;;;;;0.36;100.00;100948.50;5024464;28;20187;-46
2023/03/15 06:54:46;;;;;;;5.53;1.90;;;;;;;0.36;100.00;100959.03;5043809;28;20218;-45
2023/03/15 06:57:12;;;;;;;10.55;2.30;;;;;;;0.52;100.00;100968.75;5026486;28;20618;-45
2023/03/15 06:59:37;;;;;;;11.32;3.60;;;;;;;0.84;100.00;100964.53;5036899;28;20187;-45
2023/03/15 07:02:03;;;;;;;9.00;2.28;;;;;;;0.72;100.00;100976.81;5037526;28;20191;-46
2023/03/15 07:04:28;;;;;;;10.13;1.80;;;;;;;0.81;100.00;100966.28;5037997;28;20605;-46
2023/03/15 07:06:54;;;;;;;11.60;3.42;;;;;;;1.13;100.00;100964.63;5039313;28;20187;-47
2023/03/15 07:09:20;;;;;;;8.75;2.22;;;;;;;1.27;100.00;100976.09;5039975;28;20761;-45
2023/03/15 07:11:45;;;;;;;12.98;3.28;;;;;;;1.41;100.00;100986.69;5040694;28;20234;-46
2023/03/15 07:14:11;;;;;;;7.63;2.03;;;;;;;1.38;100.00;100984.91;5035266;28;20203;-48
2023/03/15 07:16:36;;;;;;;7.65;2.63;;;;;;;1.37;100.00;100992.81;5026850;28;20211;-47
2023/03/15 07:19:02;;;;;;;10.60;2.70;;;;;;;1.51;100.00;100991.09;5039808;28;20658;-44
2023/03/15 07:21:28;;;;;;;6.35;1.75;;;;;;;1.58;100.00;100990.22;5040533;28;20188;-46
2023/03/15 07:23:54;;;;;;;8.15;2.63;;;;;;;1.81;100.00;100981.41;5037585;28;20206;-46
2023/03/15 07:26:19;;;;;;;5.88;3.13;;;;;;;2.03;100.00;100985.84;5031615;28;20210;-48
2023/03/15 07:28:45;;;;;;;7.28;3.55;;;;;;;2.47;100.00;100983.97;5035014;28;20254;-48
2023/03/15 07:31:11;;;;;;;8.73;4.00;;;;;;;2.58;100.00;100974.28;5023432;28;20199;-47
2023/03/15 07:33:37;;;;;;;14.57;4.13;;;;;;;2.39;100.00;100972.56;5036811;28;20203;-48
2023/03/15 07:36:05;;;;;;;4.85;2.00;;;;;;;2.55;100.00;100976.03;5040135;28;20215;-43
2023/03/15 07:38:31;;;;;;;4.50;1.90;;;;;;;2.39;100.00;100983.13;5023529;28;20245;-43
2023/03/15 07:40:57;;;;;;;4.55;1.63;;;;;;;2.38;100.00;100978.72;5026802;28;20539;-47
2023/03/15 07:43:23;;;;;;;7.88;3.25;;;;;;;2.39;100.00;100984.00;5039784;28;20204;-42
2023/03/15 07:45:57;;;;;;;19.23;7.60;;;;;;;2.85;100.00;100983.88;5015637;28;20194;-43
2023/03/15 07:48:22;;;;;;;14.63;5.80;;;;;;;3.05;100.00;100982.91;5026916;28;20654;-43
2023/03/15 07:50:48;;;;;;;6.88;2.10;;;;;;;2.61;100.00;100982.19;5023919;28;20175;-44
2023/03/15 07:53:14;;;;;;;7.00;1.70;;;;;;;2.60;100.00;100991.03;5039459;28;20203;-42
2023/03/15 07:55:39;;;;;;;11.40;2.60;;;;;;;2.13;100.00;100988.47;5038436;28;20450;-43
2023/03/15 07:58:05;;;;;;;10.43;4.72;;;;;;;2.08;100.00;100990.22;5037806;28;20214;-44
2023/03/15 08:00:31;;;;;;;8.65;3.15;;;;;;;2.36;100.00;100991.97;5041358;28;20545;-43
2023/03/15 08:02:57;;;;;;;5.90;1.95;;;;;;;2.40;100.00;101001.63;5033411;28;20203;-43
2023/03/15 08:05:23;;;;;;;7.00;2.60;;;;;;;2.62;100.00;100999.84;5022548;28;20187;-41
2023/03/15 08:07:49;;;;;;;11.63;4.32;;;;;;;2.63;100.00;101003.34;5018848;28;20194;-48
2023/03/15 08:10:16;;;;;;;7.55;3.25;;;;;;;2.51;100.00;101003.38;5039243;28;20523;-41
2023/03/15 08:12:42;;;;;;;6.43;3.65;;;;;;;2.52;100.00;100991.94;5037359;28;20238;-43
2023/03/15 08:15:12;;;;;;;4.95;2.28;;;;;;;2.44;100.00;101000.72;5034903;28;20187;-46
2023/03/15 08:17:39;;;;;;;6.40;1.52;;;;;;;2.78;100.00;101000.66;5037095;28;20183;-44
2023/03/15 08:20:05;;;;;;;6.03;1.60;;;;;;;3.17;100.00;101006.69;5041175;28;20183;-43
2023/03/15 08:22:31;;;;;;;7.30;1.67;;;;;;;2.64;100.00;101005.09;5039829;28;20234;-43
2023/03/15 08:24:57;;;;;;;4.45;1.40;;;;;;;2.64;100.00;101023.63;5040572;28;20199;-45
2023/03/15 08:27:24;;;;;;;8.60;1.50;;;;;;;2.21;100.00;101021.94;5020037;28;20180;-44
2023/03/15 08:29:50;;;;;;;5.88;2.00;;;;;;;2.27;100.00;101036.91;5037354;28;20225;-42
2023/03/15 08:32:17;;;;;;;8.82;2.05;;;;;;;2.15;100.00;101036.91;5005436;28;20187;-44
2023/03/15 08:34:44;;;;;;;7.15;1.63;;;;;;;1.73;100.00;101042.19;5034308;28;20232;-42
2023/03/15 08:37:10;;;;;;;7.63;1.80;;;;;;;1.64;100.00;101044.81;5037945;28;20645;-43
2023/03/15 08:39:37;;;;;;;4.35;1.33;;;;;;;1.61;100.00;101048.31;5038835;28;20654;-41
2023/03/15 08:42:03;;;;;;;7.20;1.50;;;;;;;1.68;100.00;101040.41;5034380;28;20259;-44
2023/03/15 08:44:28;;;;;;;4.40;1.42;;;;;;;2.31;100.00;101038.66;5040305;28;20628;-43
2023/03/15 08:46:54;;;;;;;5.70;1.38;;;;;;;2.72;100.00;101040.34;5021259;28;20647;-42
2023/03/15 08:49:19;;;;;;;11.07;1.85;;;;;;;3.30;100.00;101049.81;5039055;28;20548;-41
2023/03/15 08:51:45;;;;;;;8.80;1.40;;;;;;;3.77;100.00;101048.69;5036191;28;20188;-42
2023/03/15 08:54:12;;;;;;;9.32;1.58;;;;;;;3.59;100.00;101056.78;5036302;28;20214;-43
2023/03/15 08:56:37;;;;;;;7.45;1.40;;;;;;;3.91;100.00;101049.47;5035677;28;20200;-44
2023/03/15 08:59:04;;;;;;;4.93;1.30;;;;;;;4.32;100.00;101037.63;5023105;28;20187;-43
2023/03/15 09:01:29;;;;;;;3.85;1.15;;;;;;;4.85;100.00;101051.25;5031954;28;20184;-41
2023/03/15 09:03:55;;;;;;;5.18;1.30;;;;;;;4.41;100.00;101049.94;5036542;28;20215;-40
2023/03/15 09:06:21;;;;;;;5.90;1.35;;;;;;;4.43;100.00;101057.88;5027509;28;20185;-41
2023/03/15 09:08:46;;;;;;;7.15;1.30;;;;;;;3.94;100.00;101055.66;5039424;28;20256;-42
2023/03/15 09:11:12;;;;;;;3.95;1.20;;;;;;;4.47;100.00;101060.50;5037451;28;20202;-40
2023/03/15 09:13:38;;;;;;;7.78;2.10;;;;;;;4.08;100.00;101072.31;5036679;28;20199;-40
2023/03/15 09:16:04;;;;;;;9.75;1.98;;;;;;;4.45;100.00;101067.59;5034666;28;20743;-40
2023/03/15 09:18:29;;;;;;;8.57;1.23;;;;;;;4.81;100.00;101070.78;5036808;28;20179;-41
2023/03/15 09:20:55;;;;;;;10.20;1.95;;;;;;;4.97;100.00;101070.63;5023413;28;20194;-40
2023/03/15 09:23:21;;;;;;;9.65;1.80;;;;;;;4.75;100.00;101066.41;5045261;28;20565;-41
2023/03/15 09:25:47;;;;;;;8.52;1.55;;;;;;;5.06;100.00;101070.50;5023767;28;20187;-43
2023/03/15 09:28:13;;;;;;;3.20;1.80;;;;;;;4.94;100.00;101069.75;5036962;28;20302;-41
2023/03/15 09:30:40;;;;;;;6.47;1.55;;;;;;;5.23;99.48;101076.50;5042521;28;20711;-43
2023/03/15 09:33:06;;;;;;;7.53;1.20;;;;;;;4.76;97.24;101061.97;5038351;28;20209;-41
2023/03/15 09:35:32;;;;;;;7.38;1.33;;;;;;;4.43;97.09;101069.38;5038746;28;20270;-42
2023/03/15 09:37:59;;;;;;;3.42;1.05;;;;;;;4.14;97.08;101080.25;5041404;28;20199;-41
2023/03/15 09:40:46;;;;;;;6.65;1.15;;;;;;;4.56;97.18;101074.56;5026806;28;20298;-41
2023/03/15 09:43:19;;;;;;;4.00;0.80;;;;;;;4.03;96.66;101096.22;5026925;28;20219;-42
2023/03/15 09:46:10;;;;;;;10.45;1.30;;;;;;;3.77;97.04;101092.88;5033674;28;20189;-41
2023/03/15 09:48:51;;;;;;;4.63;1.00;;;;;;;3.69;96.21;101095.53;5042460;28;20202;-44
2023/03/15 09:51:23;;;;;;;4.00;1.10;;;;;;;3.54;96.27;101092.97;5046408;28;20198;-41
2023/03/15 09:53:57;;;;;;;3.35;0.98;;;;;;;3.65;96.25;101107.03;5043364;28;20191;-40
2023/03/15 09:56:29;;;;;;;1.15;0.60;;;;;;;3.53;95.90;101108.00;5024310;28;20238;-41
2023/03/15 09:59:00;;;;;;;2.58;0.80;;;;;;;3.63;96.07;101112.38;5043012;28;20179;-43
2023/03/15 10:01:38;;;;;;;3.00;1.10;;;;;;;4.32;96.72;101119.00;5042417;28;20550;-42
2023/03/15 10:04:07;;;;;;;5.18;1.23;;;;;;;4.30;97.06;101118.13;5036854;28;20212;-41
2023/03/15 10:06:33;;;;;;;7.97;1.33;;;;;;;3.80;96.86;101114.91;5038335;28;20199;-40
2023/03/15 10:09:03;;;;;;;4.95;1.15;;;;;;;4.39;97.37;101110.06;5038585;28;20694;-43
2023/03/15 10:11:38;;;;;;;6.90;1.10;;;;;;;4.64;96.78;101101.94;5035907;28;20194;-41
2023/03/15 10:14:13;;;;;;;3.65;0.80;;;;;;;4.86;95.89;101092.84;5035962;28;20231;-41
2023/03/15 10:16:41;;;;;;;4.65;1.10;;;;;;;5.21;95.85;101094.22;5039663;28;20583;-41
2023/03/15 10:19:21;;;;;;;5.47;1.52;;;;;;;4.97;94.56;101086.56;5019557;28;20207;-41
2023/03/15 10:21:56;;;;;;;4.65;1.05;;;;;;;4.89;93.77;101083.97;5042295;28;20168;-42
2023/03/15 10:24:30;;;;;;;3.80;1.05;;;;;;;5.03;93.74;101083.78;5036431;28;20214;-41
2023/03/15 10:27:01;;;;;;;5.03;1.30;;;;;;;4.58;92.80;101083.41;5040941;28;20172;-43
2023/03/15 10:29:27;;;;;;;4.38;1.40;;;;;;;4.95;92.41;101083.91;5043265;28;20184;-42
2023/03/15 10:31:53;;;;;;;4.30;1.08;;;;;;;5.04;91.46;101091.75;5040044;28;20220;-41
2023/03/15 10:34:20;;;;;;;2.33;1.00;;;;;;;4.94;90.60;101091.00;5040733;28;20200;-41
2023/03/15 10:36:48;;;;;;;2.50;0.80;;;;;;;4.67;90.27;101088.63;5027035;28;20200;-42
2023/03/15 10:39:15;;;;;;;1.65;0.70;;;;;;;5.30;89.50;101091.44;5042087;28;20175;-42
2023/03/15 10:41:44;;;;;;;2.63;0.80;;;;;;;5.33;87.58;101080.78;5038804;28;20186;-42
2023/03/15 10:44:17;;;;;;;1.85;0.90;;;;;;;5.64;85.73;101060.88;5037534;28;20551;-41
2023/03/15 10:47:11;;;;;;;5.60;1.10;;;;;;;5.90;84.85;101082.69;5035787;28;20187;-41
2023/03/15 10:49:39;;;;;;;3.30;1.00;;;;;;;5.75;83.18;101065.16;5038382;28;20564;-40
2023/03/15 10:52:23;;;;;;;2.70;0.75;;;;;;;5.77;82.46;101076.66;5036783;28;20177;-41
2023/03/15 10:54:50;;;;;;;1.58;0.80;;;;;;;5.64;81.50;101064.44;5039516;28;20704;-41
2023/03/15 10:57:20;;;;;;;4.57;1.15;;;;;;;5.85;80.43;101060.56;5043099;28;20250;-41
2023/03/15 10:59:57;;;;;;;4.32;0.90;;;;;;;5.39;80.29;101049.72;5040987;28;20214;-40
2023/03/15 11:02:23;;;;;;;3.10;1.00;;;;;;;5.15;80.55;101062.41;5028451;28;20186;-41
2023/03/15 11:05:12;;;;;;;6.18;1.08;;;;;;;4.81;80.37;101062.81;5041524;28;20224;-41
2023/03/15 11:07:53;;;;;;;7.65;1.15;;;;;;;5.06;80.41;101052.78;5036793;28;20207;-41
2023/03/15 11:10:28;;;;;;;4.95;1.40;;;;;;;4.91;79.84;101056.50;5041790;28;20796;-40
2023/03/15 11:13:10;;;;;;;2.47;1.00;;;;;;;5.20;80.40;101062.38;5037778;28;20186;-40
2023/03/15 11:15:36;;;;;;;5.43;1.38;;;;;;;5.46;80.95;101070.88;5040612;28;20211;-41
2023/03/15 11:18:01;;;;;;;5.25;0.93;;;;;;;5.57;80.77;101070.72;5044020;28;20183;-43
2023/03/15 11:20:35;;;;;;;4.63;1.00;;;;;;;5.87;80.47;101079.19;5022818;28;20502;-40
2023/03/15 11:23:17;;;;;;;4.72;1.30;;;;;;;5.71;79.79;101071.44;5034798;28;20541;-42
2023/03/15 11:25:42;;;;;;;8.00;1.75;;;;;;;5.62;79.76;101074.22;5039676;28;20224;-40
2023/03/15 11:28:21;;;;;;;6.40;1.10;;;;;;;5.48;79.17;101065.53;5037774;28;20286;-41
2023/03/15 11:30:47;;;;;;;5.43;1.60;;;;;;;5.41;79.90;101085.13;5036552;28;20176;-41
2023/03/15 11:33:44;;;;;;;6.97;1.45;;;;;;;5.05;80.86;101090.88;5036722;28;20284;-41
2023/03/15 11:36:33;;;;;;;3.45;1.58;;;;;;;5.00;82.08;101113.06;5006372;28;20211;-41
2023/03/15 11:39:03;;;;;;;4.40;1.10;;;;;;;5.29;82.77;101123.34;5018142;28;20195;-42
2023/03/15 11:41:39;;;;;;;2.85;1.00;;;;;;;5.14;83.55;101129.72;5024371;28;20331;-41